Time;durP1;ratioP1;P1;durP2;ratioP2;P2;SDS_P1;SDS_P2;PMS_P1;PMS_P2;Temp;Humidity;BMP_temperature;BMP_pressure;BME280_temperature;BME280_humidity;BME280_pressure;Samples;Min_cycle;Max_cycle;Signal;HPM_P1;HPM_P2
2022/05/28 00:01:11;;;;;;;;;;;13.20;80.40;;;;;;4994154;28;20026;-83
2022/05/28 00:03:46;;;;;;;;;;;13.10;81.40;;;;;;5019444;28;20371;-80
2022/05/28 00:06:19;;;;;;;;;;;11.60;80.60;;;;;;4971609;28;19938;-82
2022/05/28 00:08:47;;;;;;;;;;;13.10;80.90;;;;;;5005312;28;19948;-83
2022/05/28 00:12:01;;;;;;;;;;;13.10;81.40;;;;;;4997801;28;20516;-82
2022/05/28 00:14:35;;;;;;;;;;;13.00;81.00;;;;;;4986110;28;19934;-82
2022/05/28 00:17:04;;;;;;;;;;;13.00;81.80;;;;;;4989675;28;19930;-82
2022/05/28 00:19:33;;;;;;;;;;;12.90;81.30;;;;;;4987534;28;19926;-82
2022/05/28 00:22:01;;;;;;;;;;;12.90;81.60;;;;;;5005107;28;19925;-82
2022/05/28 00:24:36;;;;;;;;;;;12.90;82.00;;;;;;4988358;28;20738;-82
2022/05/28 00:27:33;;;;;;;;;;;12.90;82.00;;;;;;4976051;28;19930;-82
2022/05/28 00:30:04;;;;;;;;;;;12.80;81.90;;;;;;4988240;28;19937;-81
2022/05/28 00:32:51;;;;;;;;;;;;;;;;;;;;;
2022/05/28 00:36:10;;;;;;;;;;;12.80;81.30;;;;;;5002421;28;19925;-82
2022/05/28 00:38:40;;;;;;;;;;;12.70;82.80;;;;;;5010825;28;19936;-82
2022/05/28 00:41:19;;;;;;;;;;;12.70;83.20;;;;;;5012093;28;19932;-82
2022/05/28 00:43:54;;;;;;;;;;;12.70;82.20;;;;;;5019914;28;19936;-81
2022/05/28 00:46:26;;;;;;;;;;;12.70;82.60;;;;;;5019922;28;19929;-82
2022/05/28 00:49:08;;;;;;;;;;;12.80;82.90;;;;;;4986695;28;19926;-83
2022/05/28 00:52:02;;;;;;;;;;;12.70;84.10;;;;;;4978923;28;19936;-82
2022/05/28 00:54:45;;;;;;;;;;;12.60;83.70;;;;;;4995687;28;19944;-83
2022/05/28 00:57:20;;;;;;;;;;;13.20;84.20;;;;;;4987157;28;19929;-82
2022/05/28 00:59:59;;;;;;;;;;;12.60;83.10;;;;;;5036133;28;19936;-83
2022/05/28 01:02:45;;;;;;;;;;;12.60;84.20;;;;;;4987180;28;19930;-81
2022/05/28 01:05:17;;;;;;;;;;;12.50;83.90;;;;;;5001873;28;19926;-82
2022/05/28 01:07:52;;;;;;;;;;;12.50;84.10;;;;;;5006458;28;19936;-83
2022/05/28 01:10:40;;;;;;;;;;;12.50;84.30;;;;;;4982533;28;19937;-82
2022/05/28 01:13:37;;;;;;;;;;;12.40;84.80;;;;;;4996923;28;19926;-82
2022/05/28 01:16:28;;;;;;;;;;;12.40;85.30;;;;;;5003503;28;19925;-82
2022/05/28 01:19:01;;;;;;;;;;;12.40;85.00;;;;;;4991703;28;20492;-83
2022/05/28 01:21:35;;;;;;;;;;;12.40;85.50;;;;;;5003294;28;19957;-82
2022/05/28 01:24:20;;;;;;;;;;;12.30;86.00;;;;;;4971091;28;19942;-82
2022/05/28 01:26:59;;;;;;;;;;;12.30;86.10;;;;;;4997433;28;20520;-82
2022/05/28 01:29:31;;;;;;;;;;;12.30;86.20;;;;;;4995082;28;19925;-82
2022/05/28 01:32:00;;;;;;;;;;;12.60;86.60;;;;;;4985560;28;19945;-82
2022/05/28 01:34:30;;;;;;;;;;;12.30;86.60;;;;;;5002488;28;19925;-82
2022/05/28 01:37:01;;;;;;;;;;;12.20;86.90;;;;;;5022844;28;19925;-83
2022/05/28 01:39:41;;;;;;;;;;;12.20;86.20;;;;;;5022246;28;19940;-82
2022/05/28 01:42:11;;;;;;;;;;;12.20;86.50;;;;;;4986800;28;19926;-81
2022/05/28 01:44:40;;;;;;;;;;;12.20;86.60;;;;;;4969858;28;19932;-82
2022/05/28 01:47:10;;;;;;;;;;;12.20;87.10;;;;;;4971639;28;19930;-81
2022/05/28 01:49:39;;;;;;;;;;;12.10;86.70;;;;;;5003579;28;19925;-82
2022/05/28 01:52:15;;;;;;;;;;;12.10;86.50;;;;;;4990722;28;19925;-81
2022/05/28 01:54:45;;;;;;;;;;;11.90;86.40;;;;;;5008498;28;19959;-83
2022/05/28 01:57:13;;;;;;;;;;;12.10;86.40;;;;;;4992288;28;19926;-82
2022/05/28 01:59:41;;;;;;;;;;;12.10;87.30;;;;;;5024418;28;20374;-81
2022/05/28 02:02:14;;;;;;;;;;;11.90;87.90;;;;;;5002966;28;19937;-82
2022/05/28 02:04:45;;;;;;;;;;;12.00;87.20;;;;;;5024056;28;19925;-82
2022/05/28 02:07:14;;;;;;;;;;;12.00;87.30;;;;;;5007339;28;20290;-81
2022/05/28 02:09:44;;;;;;;;;;;12.00;87.10;;;;;;5008877;28;19926;-82
2022/05/28 02:12:27;;;;;;;;;;;12.20;87.30;;;;;;5005920;28;19932;-82
2022/05/28 02:15:04;;;;;;;;;;;11.90;87.60;;;;;;5026038;28;19929;-81
2022/05/28 02:17:52;;;;;;;;;;;11.80;87.40;;;;;;4991394;28;19932;-82
2022/05/28 02:20:25;;;;;;;;;;;11.80;87.50;;;;;;5000713;28;20422;-82
2022/05/28 02:23:15;;;;;;;;;;;11.90;87.70;;;;;;5005059;28;19925;-82
2022/05/28 02:25:56;;;;;;;;;;;11.80;87.90;;;;;;5007965;28;19926;-82
2022/05/28 02:28:25;;;;;;;;;;;11.80;88.00;;;;;;5024515;28;19925;-82
2022/05/28 02:31:01;;;;;;;;;;;11.80;88.00;;;;;;5022900;28;19925;-81
2022/05/28 02:33:32;;;;;;;;;;;11.80;87.70;;;;;;5004662;28;20009;-82
2022/05/28 02:35:59;;;;;;;;;;;11.80;88.00;;;;;;5004470;28;19932;-82
2022/05/28 02:38:27;;;;;;;;;;;11.70;88.20;;;;;;4980369;28;19941;-81
2022/05/28 02:40:55;;;;;;;;;;;11.70;88.10;;;;;;4977279;28;20083;-82
2022/05/28 02:43:23;;;;;;;;;;;11.70;88.20;;;;;;4989471;28;20368;-82
2022/05/28 02:45:52;;;;;;;;;;;11.70;87.80;;;;;;4976035;28;19926;-83
2022/05/28 02:48:20;;;;;;;;;;;11.60;88.20;;;;;;4991832;28;19937;-82
2022/05/28 02:50:47;;;;;;;;;;;11.60;89.10;;;;;;4991433;28;19926;-81
2022/05/28 02:53:16;;;;;;;;;;;11.60;88.20;;;;;;5009248;28;19965;-82
2022/05/28 02:55:44;;;;;;;;;;;11.60;87.80;;;;;;5010159;28;19936;-82
2022/05/28 02:58:15;;;;;;;;;;;11.60;87.80;;;;;;4984210;28;19930;-82
2022/05/28 03:00:42;;;;;;;;;;;11.60;87.80;;;;;;4989304;28;19945;-82
2022/05/28 03:03:10;;;;;;;;;;;11.60;88.60;;;;;;4956068;28;19926;-82
2022/05/28 03:05:38;;;;;;;;;;;11.60;87.80;;;;;;4989522;28;19937;-82
2022/05/28 03:08:06;;;;;;;;;;;11.60;87.90;;;;;;5011326;28;20391;-82
2022/05/28 03:10:35;;;;;;;;;;;11.60;88.20;;;;;;4983624;28;19930;-82
2022/05/28 03:13:06;;;;;;;;;;;11.60;88.50;;;;;;4992246;28;19926;-81
2022/05/28 03:15:34;;;;;;;;;;;11.50;89.50;;;;;;5006686;28;19933;-82
2022/05/28 03:18:02;;;;;;;;;;;11.50;87.90;;;;;;4971476;28;19929;-83
2022/05/28 03:20:30;;;;;;;;;;;11.50;88.80;;;;;;4982763;28;19930;-82
2022/05/28 03:22:58;;;;;;;;;;;11.50;88.80;;;;;;5008042;28;20173;-82
2022/05/28 03:25:26;;;;;;;;;;;11.60;88.90;;;;;;5007542;28;19936;-82
2022/05/28 03:27:54;;;;;;;;;;;11.40;89.70;;;;;;4990919;28;19941;-82
2022/05/28 03:30:22;;;;;;;;;;;11.30;90.00;;;;;;5008229;28;19944;-82
2022/05/28 03:32:50;;;;;;;;;;;11.30;89.50;;;;;;5001961;28;20391;-83
2022/05/28 03:35:18;;;;;;;;;;;11.30;90.00;;;;;;5005462;28;19929;-82
2022/05/28 03:37:45;;;;;;;;;;;11.30;90.00;;;;;;4988828;28;19925;-82
2022/05/28 03:40:13;;;;;;;;;;;11.20;89.90;;;;;;5006335;28;19929;-82
2022/05/28 03:42:41;;;;;;;;;;;11.20;90.20;;;;;;4989628;28;19956;-81
2022/05/28 03:45:50;;;;;;;;;;;11.10;90.10;;;;;;5002664;28;19926;-81
2022/05/28 03:48:19;;;;;;;;;;;11.10;90.50;;;;;;5007189;28;19933;-82
2022/05/28 03:50:47;;;;;;;;;;;11.10;90.70;;;;;;5006086;28;19930;-82
2022/05/28 03:53:18;;;;;;;;;;;11.00;90.50;;;;;;4996747;28;19926;-82
2022/05/28 03:55:46;;;;;;;;;;;11.00;90.60;;;;;;4973170;28;19952;-82
2022/05/28 03:58:14;;;;;;;;;;;11.00;91.00;;;;;;4988664;28;19937;-81
2022/05/28 04:00:41;;;;;;;;;;;11.00;90.80;;;;;;4974133;28;19941;-82
2022/05/28 04:03:09;;;;;;;;;;;10.90;91.10;;;;;;5003850;28;19941;-82
2022/05/28 04:05:38;;;;;;;;;;;10.90;90.90;;;;;;5007780;28;19940;-83
2022/05/28 04:08:06;;;;;;;;;;;10.90;91.30;;;;;;5008686;28;19937;-82
2022/05/28 04:10:34;;;;;;;;;;;10.90;91.30;;;;;;5006933;28;19925;-82
2022/05/28 04:13:02;;;;;;;;;;;10.80;91.30;;;;;;5006733;28;19930;-83
2022/05/28 04:15:31;;;;;;;;;;;10.90;91.30;;;;;;5006999;28;19926;-82
2022/05/28 04:17:59;;;;;;;;;;;10.80;91.70;;;;;;5006393;28;19933;-82
2022/05/28 04:20:27;;;;;;;;;;;10.80;91.40;;;;;;5003756;28;19941;-82
2022/05/28 04:22:57;;;;;;;;;;;9.40;91.30;;;;;;4990119;28;19936;-82
2022/05/28 04:25:25;;;;;;;;;;;10.80;91.50;;;;;;4989646;28;20263;-81
2022/05/28 04:27:54;;;;;;;;;;;10.70;91.40;;;;;;5007286;28;19936;-82
2022/05/28 04:30:22;;;;;;;;;;;10.80;91.60;;;;;;5007269;28;19930;-81
2022/05/28 04:32:50;;;;;;;;;;;10.70;91.90;;;;;;4999181;28;19933;-82
2022/05/28 04:35:20;;;;;;;;;;;9.60;91.80;;;;;;5022157;28;19932;-83
2022/05/28 04:37:48;;;;;;;;;;;10.80;92.20;;;;;;5026859;28;20288;-82
2022/05/28 04:40:15;;;;;;;;;;;10.70;91.90;;;;;;5026099;28;19925;-82
2022/05/28 04:42:44;;;;;;;;;;;10.70;92.30;;;;;;5004665;28;19937;-82
2022/05/28 04:45:19;;;;;;;;;;;10.70;92.60;;;;;;5016235;28;19930;-81
2022/05/28 04:47:47;;;;;;;;;;;10.70;92.30;;;;;;5005908;28;19936;-82
2022/05/28 04:50:15;;;;;;;;;;;10.70;92.50;;;;;;5011887;28;19941;-82
2022/05/28 04:52:43;;;;;;;;;;;10.70;92.50;;;;;;5009478;28;19936;-82
2022/05/28 04:55:12;;;;;;;;;;;10.70;92.50;;;;;;5005518;28;19937;-82
2022/05/28 04:57:40;;;;;;;;;;;10.70;92.40;;;;;;5023196;28;20510;-82
2022/05/28 05:00:11;;;;;;;;;;;10.60;92.60;;;;;;5039020;28;19925;-82
2022/05/28 05:02:39;;;;;;;;;;;10.70;92.40;;;;;;5023850;28;19930;-82
2022/05/28 05:05:07;;;;;;;;;;;10.70;92.50;;;;;;5037819;28;19933;-82
2022/05/28 05:07:35;;;;;;;;;;;10.60;92.40;;;;;;5022339;28;20359;-82
2022/05/28 05:10:03;;;;;;;;;;;10.70;92.60;;;;;;5003694;28;19936;-82
2022/05/28 05:12:35;;;;;;;;;;;10.70;92.70;;;;;;4981030;28;19929;-81
2022/05/28 05:15:11;;;;;;;;;;;10.70;92.80;;;;;;4999230;28;19925;-82
2022/05/28 05:17:38;;;;;;;;;;;10.70;92.70;;;;;;4970313;28;19926;-82
2022/05/28 05:20:07;;;;;;;;;;;10.70;92.90;;;;;;5007826;28;19925;-82
2022/05/28 05:22:35;;;;;;;;;;;10.90;92.60;;;;;;4317435;28;10000650;-81
2022/05/28 05:25:04;;;;;;;;;;;10.60;92.80;;;;;;4987499;28;19926;-82
2022/05/28 05:27:31;;;;;;;;;;;10.70;92.80;;;;;;4970866;28;19937;-81
2022/05/28 05:29:59;;;;;;;;;;;10.80;93.00;;;;;;4986340;28;20376;-82
2022/05/28 05:32:27;;;;;;;;;;;10.80;93.00;;;;;;5013218;28;19930;-82
2022/05/28 05:34:55;;;;;;;;;;;10.90;92.70;;;;;;4991083;28;19925;-82
2022/05/28 05:37:25;;;;;;;;;;;9.30;92.50;;;;;;5022142;28;19929;-82
2022/05/28 05:39:52;;;;;;;;;;;11.00;92.70;;;;;;5004883;28;19936;-81
2022/05/28 05:42:20;;;;;;;;;;;11.00;92.80;;;;;;4989301;28;20291;-82
2022/05/28 05:44:47;;;;;;;;;;;11.10;92.80;;;;;;5023906;28;20148;-82
2022/05/28 05:47:15;;;;;;;;;;;11.10;92.80;;;;;;5006189;28;19937;-82
2022/05/28 05:49:43;;;;;;;;;;;11.10;92.70;;;;;;5022435;28;19926;-82
2022/05/28 05:52:11;;;;;;;;;;;11.20;92.80;;;;;;5017829;28;19930;-82
2022/05/28 05:54:42;;;;;;;;;;;11.20;92.70;;;;;;4984953;28;19930;-82
2022/05/28 05:57:10;;;;;;;;;;;11.20;92.70;;;;;;5004282;28;19941;-82
2022/05/28 05:59:37;;;;;;;;;;;11.30;92.80;;;;;;4969236;28;19934;-82
2022/05/28 06:02:08;;;;;;;;;;;11.30;92.90;;;;;;5008974;28;19937;-82
2022/05/28 06:04:37;;;;;;;;;;;11.30;92.70;;;;;;5020385;28;19941;-82
2022/05/28 06:07:05;;;;;;;;;;;10.10;92.20;;;;;;5021816;28;20280;-82
2022/05/28 06:09:36;;;;;;;;;;;11.40;92.50;;;;;;5005682;28;19926;-82
2022/05/28 06:12:05;;;;;;;;;;;12.90;93.30;;;;;;5021215;28;20262;-82
2022/05/28 06:14:33;;;;;;;;;;;11.50;92.50;;;;;;5020997;28;20268;-82
2022/05/28 06:17:01;;;;;;;;;;;11.50;92.60;;;;;;5023404;28;19926;-82
2022/05/28 06:19:30;;;;;;;;;;;11.60;92.40;;;;;;5004275;28;19925;-82
2022/05/28 06:22:00;;;;;;;;;;;11.60;92.40;;;;;;5016368;28;20421;-82
2022/05/28 06:24:29;;;;;;;;;;;11.70;92.60;;;;;;5005513;28;19929;-83
2022/05/28 06:27:02;;;;;;;;;;;11.70;92.30;;;;;;5023798;28;19935;-82
2022/05/28 06:29:33;;;;;;;;;;;11.80;92.20;;;;;;5005046;28;19926;-82
2022/05/28 06:32:04;;;;;;;;;;;11.80;92.60;;;;;;4987708;28;19930;-82
2022/05/28 06:34:36;;;;;;;;;;;11.70;92.50;;;;;;5015521;28;19929;-82
2022/05/28 06:37:17;;;;;;;;;;;11.90;92.10;;;;;;5025654;28;20387;-82
2022/05/28 06:39:49;;;;;;;;;;;12.10;92.10;;;;;;4978142;28;20360;-82
2022/05/28 06:42:44;;;;;;;;;;;12.00;92.40;;;;;;4994618;28;19940;-82
2022/05/28 06:45:25;;;;;;;;;;;12.10;92.20;;;;;;5026021;28;20012;-82
2022/05/28 06:47:56;;;;;;;;;;;12.10;92.10;;;;;;5008694;28;19929;-82
2022/05/28 06:53:48;;;;;;;;;;;;;;;;;;;;;
2022/05/28 06:56:26;;;;;;;;;;;12.30;92.10;;;;;;4956871;28;20010;-82
2022/05/28 06:58:54;;;;;;;;;;;12.30;92.00;;;;;;4988970;28;19941;-82
2022/05/28 07:01:40;;;;;;;;;;;12.30;92.30;;;;;;5000455;28;19929;-82
2022/05/28 07:04:22;;;;;;;;;;;12.30;92.00;;;;;;5004169;28;19926;-82
2022/05/28 07:07:05;;;;;;;;;;;13.50;92.50;;;;;;5003848;28;19932;-82
2022/05/28 07:09:36;;;;;;;;;;;12.50;92.20;;;;;;5019967;28;19929;-82
2022/05/28 07:12:04;;;;;;;;;;;12.50;91.90;;;;;;5003537;28;19926;-82
2022/05/28 07:14:33;;;;;;;;;;;12.60;91.80;;;;;;5037322;28;19929;-82
2022/05/28 07:17:01;;;;;;;;;;;12.60;91.80;;;;;;5041419;28;19925;-82
2022/05/28 07:19:34;;;;;;;;;;;12.70;91.80;;;;;;5015563;28;19926;-82
2022/05/28 07:22:06;;;;;;;;;;;12.70;91.90;;;;;;5008598;28;19925;-82
2022/05/28 07:24:34;;;;;;;;;;;12.90;91.80;;;;;;4642498;28;9999931;-81
2022/05/28 07:27:06;;;;;;;;;;;12.90;91.70;;;;;;4988874;28;19929;-82
2022/05/28 07:29:35;;;;;;;;;;;13.00;91.60;;;;;;5007072;28;19926;-82
2022/05/28 07:32:04;;;;;;;;;;;13.00;91.50;;;;;;4977843;28;19930;-82
2022/05/28 07:34:32;;;;;;;;;;;13.00;91.30;;;;;;5000362;28;20013;-82
2022/05/28 07:37:00;;;;;;;;;;;13.10;91.30;;;;;;4985214;28;19929;-82
2022/05/28 07:39:29;;;;;;;;;;;13.10;91.40;;;;;;5001569;28;19930;-82
2022/05/28 07:41:58;;;;;;;;;;;13.10;91.50;;;;;;4999280;28;19930;-82
2022/05/28 07:44:27;;;;;;;;;;;13.30;91.50;;;;;;4985054;28;20002;-82
2022/05/28 07:46:55;;;;;;;;;;;13.30;91.50;;;;;;5001392;28;19930;-82
2022/05/28 07:49:26;;;;;;;;;;;13.40;91.60;;;;;;5002559;28;19930;-83
2022/05/28 07:51:54;;;;;;;;;;;13.60;91.10;;;;;;4985086;28;19941;-82
2022/05/28 07:54:22;;;;;;;;;;;13.50;91.10;;;;;;5000386;28;19936;-82
2022/05/28 07:56:53;;;;;;;;;;;13.60;90.90;;;;;;5003679;28;19926;-81
2022/05/28 07:59:29;;;;;;;;;;;13.70;90.70;;;;;;4987879;28;19926;-82
2022/05/28 08:02:04;;;;;;;;;;;14.40;90.80;;;;;;5001800;28;19932;-82
2022/05/28 08:04:34;;;;;;;;;;;13.80;90.60;;;;;;5002457;28;19936;-83
2022/05/28 08:07:02;;;;;;;;;;;13.90;90.90;;;;;;5002295;28;19930;-82
2022/05/28 08:09:30;;;;;;;;;;;14.00;90.90;;;;;;5000800;28;19934;-82
2022/05/28 08:11:58;;;;;;;;;;;13.90;90.80;;;;;;5001115;28;19933;-82
2022/05/28 08:14:34;;;;;;;;;;;14.00;90.80;;;;;;5000738;28;19936;-82
2022/05/28 08:17:02;;;;;;;;;;;14.10;90.60;;;;;;4964691;28;19936;-83
2022/05/28 08:19:33;;;;;;;;;;;14.20;90.40;;;;;;4998841;28;19929;-82
2022/05/28 08:24:54;;;;;;;;;;;13.20;89.80;;;;;;5000683;28;19940;-82
2022/05/28 08:27:22;;;;;;;;;;;13.20;88.70;;;;;;5002746;28;19930;-83
2022/05/28 08:29:51;;;;;;;;;;;14.40;90.50;;;;;;5002592;28;19926;-82
2022/05/28 08:32:21;;;;;;;;;;;14.20;88.80;;;;;;5012675;28;19929;-82
2022/05/28 08:34:50;;;;;;;;;;;15.30;90.10;;;;;;4999346;28;19936;-82
2022/05/28 08:37:22;;;;;;;;;;;14.60;88.90;;;;;;5016615;28;19933;-83
2022/05/28 08:39:50;;;;;;;;;;;14.70;88.40;;;;;;5014496;28;19925;-82
2022/05/28 08:42:20;;;;;;;;;;;14.70;89.30;;;;;;5012216;28;19929;-83
2022/05/28 08:44:52;;;;;;;;;;;14.80;89.40;;;;;;5032195;28;19944;-83
2022/05/28 08:47:33;;;;;;;;;;;14.90;88.60;;;;;;5028479;28;19933;-82
2022/05/28 08:50:11;;;;;;;;;;;14.90;88.90;;;;;;5057721;23;19924;-83
2022/05/28 08:52:43;;;;;;;;;;;15.00;88.90;;;;;;5008957;28;19941;-91
2022/05/28 08:55:15;;;;;;;;;;;15.10;88.60;;;;;;5001569;28;19934;-92
2022/05/28 08:57:43;;;;;;;;;;;15.20;88.50;;;;;;5007321;28;19921;-92
2022/05/28 09:00:34;;;;;;;;;;;15.30;88.60;;;;;;5015206;28;20261;-91
2022/05/28 09:03:15;;;;;;;;;;;15.40;88.00;;;;;;5010720;28;19933;-94
2022/05/28 09:05:47;;;;;;;;;;;15.60;87.30;;;;;;5014066;28;19940;-93
2022/05/28 09:11:48;;;;;;;;;;;15.70;86.70;;;;;;5010111;28;19935;-94
2022/05/28 09:14:24;;;;;;;;;;;15.80;85.90;;;;;;4995097;28;19917;-94
2022/05/28 09:16:53;;;;;;;;;;;15.90;86.50;;;;;;4965695;28;19926;-94
2022/05/28 09:19:33;;;;;;;;;;;15.90;86.00;;;;;;4983431;28;19914;-92
2022/05/28 09:22:12;;;;;;;;;;;14.50;85.50;;;;;;5006963;28;19930;-93
2022/05/28 09:24:53;;;;;;;;;;;16.10;85.40;;;;;;4990053;28;19922;-91
2022/05/28 09:27:45;;;;;;;;;;;16.20;85.00;;;;;;4990739;28;19932;-93
2022/05/28 09:30:19;;;;;;;;;;;16.50;84.70;;;;;;4996969;28;19934;-94
2022/05/28 09:33:05;;;;;;;;;;;16.50;84.10;;;;;;4987348;28;19932;-90
2022/05/28 09:35:36;;;;;;;;;;;16.70;83.20;;;;;;5009842;28;19910;-92
2022/05/28 09:38:10;;;;;;;;;;;16.70;83.30;;;;;;5000957;28;19917;-91
2022/05/28 09:40:52;;;;;;;;;;;16.80;83.20;;;;;;5016592;28;19914;-94
2022/05/28 09:43:46;;;;;;;;;;;16.80;83.00;;;;;;4993865;28;19934;-91
2022/05/28 09:46:17;;;;;;;;;;;16.90;83.10;;;;;;4993234;28;20009;-91
2022/05/28 09:48:56;;;;;;;;;;;17.10;82.30;;;;;;4994296;28;19930;-92
2022/05/28 09:51:26;;;;;;;;;;;18.20;83.20;;;;;;4998162;28;19933;-92
2022/05/28 09:54:17;;;;;;;;;;;17.50;82.30;;;;;;5004254;28;19928;-91
2022/05/28 09:56:54;;;;;;;;;;;17.70;82.20;;;;;;5001601;28;19934;-93
2022/05/28 09:59:26;;;;;;;;;;;17.70;80.80;;;;;;5007691;28;19920;-91
2022/05/28 10:02:13;;;;;;;;;;;17.90;79.70;;;;;;4987763;28;19914;-92
2022/05/28 10:05:00;;;;;;;;;;;17.90;78.90;;;;;;5000258;28;19927;-94
2022/05/28 10:07:37;;;;;;;;;;;18.00;79.40;;;;;;5012788;28;19914;-94
2022/05/28 10:10:18;;;;;;;;;;;18.00;78.50;;;;;;5008699;28;19914;-94
2022/05/28 10:12:51;;;;;;;;;;;18.20;76.90;;;;;;4995732;28;19929;-93
2022/05/28 10:15:24;;;;;;;;;;;18.20;76.90;;;;;;4982012;28;19930;-94
2022/05/28 10:18:01;;;;;;;;;;;18.20;78.00;;;;;;4993204;28;19930;-93
2022/05/28 10:20:55;;;;;;;;;;;18.40;78.80;;;;;;5000214;28;19932;-95
2022/05/28 10:23:24;;;;;;;;;;;18.50;78.30;;;;;;4996369;28;19922;-91
2022/05/28 10:26:16;;;;;;;;;;;18.50;76.60;;;;;;5018051;28;19936;-94
2022/05/28 10:28:51;;;;;;;;;;;18.50;77.80;;;;;;4998428;28;20388;-90
2022/05/28 10:31:25;;;;;;;;;;;18.60;78.00;;;;;;4997927;28;20293;-91
2022/05/28 10:33:53;;;;;;;;;;;18.80;76.80;;;;;;5010593;28;19933;-93
2022/05/28 10:36:36;;;;;;;;;;;18.90;76.30;;;;;;4953052;28;20237;-94
2022/05/28 10:39:12;;;;;;;;;;;18.10;76.50;;;;;;4973765;28;20356;-93
2022/05/28 10:41:41;;;;;;;;;;;18.90;75.70;;;;;;4968870;28;19928;-94
2022/05/28 10:44:13;;;;;;;;;;;19.10;76.40;;;;;;4987697;28;19929;-94
2022/05/28 10:47:02;;;;;;;;;;;19.10;76.80;;;;;;4972013;28;19941;-94
2022/05/28 10:49:42;;;;;;;;;;;19.40;75.40;;;;;;4971168;28;19933;-89
2022/05/28 10:52:16;;;;;;;;;;;19.50;75.30;;;;;;4993755;28;19929;-94
2022/05/28 10:54:47;;;;;;;;;;;19.70;74.20;;;;;;5003917;28;19930;-89
2022/05/28 10:57:24;;;;;;;;;;;19.90;74.60;;;;;;4990632;28;19922;-90
2022/05/28 11:00:03;;;;;;;;;;;19.80;74.40;;;;;;4984226;28;19930;-91
2022/05/28 11:02:50;;;;;;;;;;;19.80;73.30;;;;;;4992063;28;19945;-91
2022/05/28 11:05:37;;;;;;;;;;;19.70;72.90;;;;;;4998136;28;19933;-94
2022/05/28 11:08:16;;;;;;;;;;;19.40;73.50;;;;;;4993876;28;19940;-93
2022/05/28 11:10:47;;;;;;;;;;;19.20;74.30;;;;;;4993097;28;19913;-92
2022/05/28 11:13:32;;;;;;;;;;;19.10;74.20;;;;;;4991128;28;19925;-92
2022/05/28 11:16:03;;;;;;;;;;;19.10;73.90;;;;;;4990621;28;19945;-92
2022/05/28 11:18:40;;;;;;;;;;;19.10;74.20;;;;;;4969266;28;19930;-92
2022/05/28 11:21:14;;;;;;;;;;;19.10;74.30;;;;;;4970442;28;19933;-92
2022/05/28 11:23:57;;;;;;;;;;;19.10;73.90;;;;;;5001160;28;19929;-93
2022/05/28 11:26:58;;;;;;;;;;;18.20;74.10;;;;;;5002805;28;19926;-92
2022/05/28 11:29:37;;;;;;;;;;;19.20;74.40;;;;;;4969807;28;19922;-93
2022/05/28 11:32:08;;;;;;;;;;;19.30;74.00;;;;;;4951602;28;19930;-90
2022/05/28 11:34:42;;;;;;;;;;;19.40;74.80;;;;;;4968616;28;19932;-92
2022/05/28 11:37:17;;;;;;;;;;;19.40;73.90;;;;;;4982492;28;20337;-92
2022/05/28 11:39:48;;;;;;;;;;;19.30;74.10;;;;;;4981057;28;19933;-92
2022/05/28 11:42:29;;;;;;;;;;;19.40;74.40;;;;;;4973956;28;19941;-91
2022/05/28 11:45:00;;;;;;;;;;;19.40;74.40;;;;;;4984930;28;19929;-91
2022/05/28 11:47:44;;;;;;;;;;;19.40;74.40;;;;;;4969962;28;19925;-92
2022/05/28 11:53:27;;;;;;;;;;;19.50;74.60;;;;;;4984086;28;19934;-92
2022/05/28 11:55:58;;;;;;;;;;;19.60;72.50;;;;;;4970904;28;19940;-90
2022/05/28 11:58:29;;;;;;;;;;;19.60;73.20;;;;;;4969554;28;19937;-93
2022/05/28 12:01:02;;;;;;;;;;;19.60;73.20;;;;;;4956594;28;19938;-93
2022/05/28 12:03:31;;;;;;;;;;;19.50;73.80;;;;;;4969045;28;19938;-92
2022/05/28 12:06:02;;;;;;;;;;;19.50;74.30;;;;;;4977061;28;19934;-93
2022/05/28 12:08:33;;;;;;;;;;;19.40;74.70;;;;;;4951816;28;19933;-90
2022/05/28 12:11:27;;;;;;;;;;;19.30;74.50;;;;;;4980312;28;19914;-92
2022/05/28 12:14:23;;;;;;;;;;;19.60;74.40;;;;;;4980576;28;20038;-94
2022/05/28 12:17:00;;;;;;;;;;;19.30;73.30;;;;;;4984815;28;19934;-91
2022/05/28 12:19:27;;;;;;;;;;;19.30;73.40;;;;;;4982700;28;20303;-91
2022/05/28 12:22:05;;;;;;;;;;;18.30;74.00;;;;;;4981630;28;19926;-90
2022/05/28 12:24:40;;;;;;;;;;;19.30;73.40;;;;;;4968716;28;19922;-94
2022/05/28 12:27:21;;;;;;;;;;;18.40;71.10;;;;;;4972133;28;19913;-94
2022/05/28 12:30:02;;;;;;;;;;;19.70;70.30;;;;;;4976652;28;19930;-94
2022/05/28 12:32:42;;;;;;;;;;;19.90;71.00;;;;;;4972447;28;19945;-90
2022/05/28 12:35:20;;;;;;;;;;;20.30;69.70;;;;;;4971615;28;19933;-93
2022/05/28 12:38:09;;;;;;;;;;;20.80;69.00;;;;;;4975949;28;19921;-92
2022/05/28 12:40:55;;;;;;;;;;;20.60;68.70;;;;;;4976344;28;20129;-93
2022/05/28 12:43:33;;;;;;;;;;;20.60;69.40;;;;;;4954477;28;19945;-90
2022/05/28 12:46:12;;;;;;;;;;;20.80;69.10;;;;;;4974981;28;19926;-92
2022/05/28 12:48:42;;;;;;;;;;;20.50;68.70;;;;;;4957378;28;19925;-93
2022/05/28 12:51:09;;;;;;;;;;;20.40;68.40;;;;;;4993242;28;19926;-93
2022/05/28 12:53:53;;;;;;;;;;;20.40;69.50;;;;;;4990286;28;19924;-92
2022/05/28 12:56:24;;;;;;;;;;;20.20;69.20;;;;;;4973038;28;19929;-92
2022/05/28 12:58:52;;;;;;;;;;;20.30;70.00;;;;;;5013220;28;19913;-95
2022/05/28 13:01:29;;;;;;;;;;;20.20;70.60;;;;;;5003202;28;19948;-94
2022/05/28 13:03:57;;;;;;;;;;;20.20;69.60;;;;;;5000452;28;19920;-93
2022/05/28 13:06:38;;;;;;;;;;;20.40;70.10;;;;;;4982620;28;19926;-93
2022/05/28 13:09:07;;;;;;;;;;;20.40;69.10;;;;;;4972083;28;19922;-92
2022/05/28 13:11:35;;;;;;;;;;;20.50;69.40;;;;;;4992523;28;19936;-92
2022/05/28 13:14:16;;;;;;;;;;;20.60;67.00;;;;;;4979131;28;19932;-92
2022/05/28 13:17:01;;;;;;;;;;;20.80;67.40;;;;;;4999855;28;19920;-92
2022/05/28 13:19:35;;;;;;;;;;;20.70;67.20;;;;;;5001362;28;19914;-90
2022/05/28 13:22:18;;;;;;;;;;;21.40;66.40;;;;;;5015312;28;19974;-90
2022/05/28 13:25:08;;;;;;;;;;;21.70;65.60;;;;;;4983172;28;19937;-90
2022/05/28 13:27:38;;;;;;;;;;;21.90;64.90;;;;;;4981424;28;19945;-89
2022/05/28 13:30:14;;;;;;;;;;;21.80;64.80;;;;;;5000259;28;19937;-92
2022/05/28 13:32:55;;;;;;;;;;;21.60;65.40;;;;;;5004860;28;20353;-89
2022/05/28 13:35:23;;;;;;;;;;;21.30;65.50;;;;;;4974924;28;19941;-91
2022/05/28 13:37:53;;;;;;;;;;;21.00;65.60;;;;;;4994230;28;19926;-89
2022/05/28 13:40:23;;;;;;;;;;;20.70;66.70;;;;;;4971860;28;19925;-87
2022/05/28 13:42:52;;;;;;;;;;;21.20;67.50;;;;;;5003450;28;19937;-93
2022/05/28 13:45:21;;;;;;;;;;;20.40;67.60;;;;;;4996156;28;19926;-91
2022/05/28 13:47:49;;;;;;;;;;;20.30;68.00;;;;;;4989772;28;19926;-89
2022/05/28 13:50:22;;;;;;;;;;;20.20;68.60;;;;;;5004801;28;19936;-89
2022/05/28 13:52:50;;;;;;;;;;;20.10;69.30;;;;;;4981435;28;19930;-88
2022/05/28 13:55:50;;;;;;;;;;;20.30;70.20;;;;;;4969966;28;20203;-88
2022/05/28 13:58:51;;;;;;;;;;;20.40;68.80;;;;;;4978414;28;19933;-88
2022/05/28 14:01:22;;;;;;;;;;;20.10;68.00;;;;;;4963259;28;19934;-89
2022/05/28 14:03:49;;;;;;;;;;;20.80;67.60;;;;;;4986684;28;19926;-84
2022/05/28 14:06:39;;;;;;;;;;;;;;;;;;;;;
2022/05/28 14:09:11;;;;;;;;;;;20.90;67.00;;;;;;5008680;28;20022;-89
2022/05/28 14:11:39;;;;;;;;;;;20.70;67.40;;;;;;4985030;28;19926;-89
2022/05/28 14:14:15;;;;;;;;;;;20.60;67.50;;;;;;5003356;28;19933;-85
2022/05/28 14:16:48;;;;;;;;;;;20.40;67.10;;;;;;5004077;28;19930;-86
2022/05/28 14:19:30;;;;;;;;;;;20.30;67.30;;;;;;4983795;28;19929;-88
2022/05/28 14:22:01;;;;;;;;;;;20.10;67.20;;;;;;4982529;28;19949;-89
2022/05/28 14:24:39;;;;;;;;;;;20.10;66.80;;;;;;4994921;28;19930;-89
2022/05/28 14:27:14;;;;;;;;;;;20.10;67.40;;;;;;4993654;28;19926;-88
2022/05/28 14:29:45;;;;;;;;;;;20.20;67.60;;;;;;4994767;28;19930;-89
2022/05/28 14:32:15;;;;;;;;;;;20.30;67.70;;;;;;5004464;28;19926;-86
2022/05/28 14:34:44;;;;;;;;;;;20.30;66.90;;;;;;5004831;28;19940;-86
2022/05/28 14:37:25;;;;;;;;;;;20.40;66.40;;;;;;4976978;28;19936;-87
2022/05/28 14:39:54;;;;;;;;;;;20.40;66.00;;;;;;5002823;28;20769;-88
2022/05/28 14:42:32;;;;;;;;;;;20.40;67.00;;;;;;5006711;28;20394;-90
2022/05/28 14:45:01;;;;;;;;;;;20.40;66.40;;;;;;4998217;28;20594;-87
2022/05/28 14:47:30;;;;;;;;;;;20.40;66.70;;;;;;5006779;28;19934;-86
2022/05/28 14:50:00;;;;;;;;;;;20.40;67.20;;;;;;5009243;28;19925;-89
2022/05/28 14:52:32;;;;;;;;;;;20.50;66.60;;;;;;4993825;28;19935;-87
2022/05/28 14:55:02;;;;;;;;;;;20.50;66.70;;;;;;4993239;28;19925;-87
2022/05/28 14:57:29;;;;;;;;;;;20.60;66.70;;;;;;5009772;28;19970;-87
2022/05/28 14:59:57;;;;;;;;;;;20.70;66.50;;;;;;4974705;28;19925;-87
2022/05/28 15:02:29;;;;;;;;;;;20.80;66.30;;;;;;5006731;28;19940;-87
2022/05/28 15:05:09;;;;;;;;;;;21.00;66.70;;;;;;4995700;28;19929;-89
2022/05/28 15:07:37;;;;;;;;;;;20.60;67.00;;;;;;5010838;28;19930;-87
2022/05/28 15:10:06;;;;;;;;;;;20.70;66.90;;;;;;4990725;28;19925;-87
2022/05/28 15:12:36;;;;;;;;;;;20.70;67.40;;;;;;5001897;28;19930;-86